sensor_id;sensor_type;location;lat;lon;timestamp;temperature;humidity
42347;DHT22;75728;51.856;6.314;2024-02-21T00:00:46;20.70;99.90
42347;DHT22;75728;51.856;6.314;2024-02-21T00:03:12;20.70;99.90
42347;DHT22;75728;51.856;6.314;2024-02-21T00:05:37;20.70;99.90
42347;DHT22;75728;51.856;6.314;2024-02-21T00:08:03;20.70;99.90
42347;DHT22;75728;51.856;6.314;2024-02-21T00:10:29;20.70;99.90
42347;DHT22;75728;51.856;6.314;2024-02-21T00:12:57;20.70;99.90
42347;DHT22;75728;51.856;6.314;2024-02-21T00:15:22;20.70;99.90
42347;DHT22;75728;51.856;6.314;2024-02-21T00:17:48;20.70;99.90
42347;DHT22;75728;51.856;6.314;2024-02-21T00:20:14;20.70;99.90
42347;DHT22;75728;51.856;6.314;2024-02-21T00:22:40;20.70;99.90
42347;DHT22;75728;51.856;6.314;2024-02-21T00:25:05;20.70;99.90
42347;DHT22;75728;51.856;6.314;2024-02-21T00:27:31;20.70;99.90
42347;DHT22;75728;51.856;6.314;2024-02-21T00:29:57;20.70;99.90
42347;DHT22;75728;51.856;6.314;2024-02-21T00:32:23;20.70;99.90
42347;DHT22;75728;51.856;6.314;2024-02-21T00:34:48;20.70;99.90
42347;DHT22;75728;51.856;6.314;2024-02-21T00:37:14;20.70;99.90
42347;DHT22;75728;51.856;6.314;2024-02-21T00:39:40;20.70;99.90
42347;DHT22;75728;51.856;6.314;2024-02-21T00:42:05;20.70;99.90
42347;DHT22;75728;51.856;6.314;2024-02-21T00:44:32;20.70;99.90
42347;DHT22;75728;51.856;6.314;2024-02-21T00:46:58;20.70;99.90
42347;DHT22;75728;51.856;6.314;2024-02-21T00:49:24;20.70;99.90
42347;DHT22;75728;51.856;6.314;2024-02-21T00:51:49;20.70;99.90
42347;DHT22;75728;51.856;6.314;2024-02-21T00:54:15;20.70;99.90
42347;DHT22;75728;51.856;6.314;2024-02-21T00:56:42;20.70;99.90
42347;DHT22;75728;51.856;6.314;2024-02-21T00:59:07;20.70;99.90
42347;DHT22;75728;51.856;6.314;2024-02-21T01:01:33;20.70;99.90
42347;DHT22;75728;51.856;6.314;2024-02-21T01:03:59;20.70;99.90
42347;DHT22;75728;51.856;6.314;2024-02-21T01:06:25;20.70;99.90
42347;DHT22;75728;51.856;6.314;2024-02-21T01:08:51;20.70;99.90
42347;DHT22;75728;51.856;6.314;2024-02-21T01:11:17;20.70;99.90
42347;DHT22;75728;51.856;6.314;2024-02-21T01:13:42;20.60;99.90
42347;DHT22;75728;51.856;6.314;2024-02-21T01:16:08;20.60;99.90
42347;DHT22;75728;51.856;6.314;2024-02-21T01:18:34;20.60;99.90
42347;DHT22;75728;51.856;6.314;2024-02-21T01:21:00;20.60;99.90
42347;DHT22;75728;51.856;6.314;2024-02-21T01:23:25;20.60;99.90
42347;DHT22;75728;51.856;6.314;2024-02-21T01:25:51;20.60;99.90
42347;DHT22;75728;51.856;6.314;2024-02-21T01:28:18;20.60;99.90
42347;DHT22;75728;51.856;6.314;2024-02-21T01:30:44;20.60;99.90
42347;DHT22;75728;51.856;6.314;2024-02-21T01:33:09;20.60;99.90
42347;DHT22;75728;51.856;6.314;2024-02-21T01:35:36;20.60;99.90
42347;DHT22;75728;51.856;6.314;2024-02-21T01:38:02;20.60;99.90
42347;DHT22;75728;51.856;6.314;2024-02-21T01:40:28;20.60;99.90
42347;DHT22;75728;51.856;6.314;2024-02-21T01:42:55;20.60;99.90
42347;DHT22;75728;51.856;6.314;2024-02-21T01:45:21;20.60;99.90
42347;DHT22;75728;51.856;6.314;2024-02-21T01:47:47;20.60;99.90
42347;DHT22;75728;51.856;6.314;2024-02-21T01:50:15;20.60;99.90
42347;DHT22;75728;51.856;6.314;2024-02-21T01:52:41;20.60;99.90
42347;DHT22;75728;51.856;6.314;2024-02-21T01:55:07;20.60;99.90
42347;DHT22;75728;51.856;6.314;2024-02-21T01:57:34;20.60;99.90
42347;DHT22;75728;51.856;6.314;2024-02-21T02:00:01;20.60;99.90
42347;DHT22;75728;51.856;6.314;2024-02-21T02:02:26;20.60;99.90
42347;DHT22;75728;51.856;6.314;2024-02-21T02:04:52;20.60;99.90
42347;DHT22;75728;51.856;6.314;2024-02-21T02:07:18;20.60;99.90
42347;DHT22;75728;51.856;6.314;2024-02-21T02:09:44;20.60;99.90
42347;DHT22;75728;51.856;6.314;2024-02-21T02:12:09;20.60;99.90
42347;DHT22;75728;51.856;6.314;2024-02-21T02:14:35;20.60;99.90
42347;DHT22;75728;51.856;6.314;2024-02-21T02:17:01;20.60;99.90
42347;DHT22;75728;51.856;6.314;2024-02-21T02:19:26;20.60;99.90
42347;DHT22;75728;51.856;6.314;2024-02-21T02:21:56;20.60;99.90
42347;DHT22;75728;51.856;6.314;2024-02-21T02:24:24;20.60;99.90
42347;DHT22;75728;51.856;6.314;2024-02-21T02:26:51;20.60;99.90
42347;DHT22;75728;51.856;6.314;2024-02-21T02:29:17;20.60;99.90
42347;DHT22;75728;51.856;6.314;2024-02-21T02:31:42;20.60;99.90
42347;DHT22;75728;51.856;6.314;2024-02-21T02:34:08;20.60;99.90
42347;DHT22;75728;51.856;6.314;2024-02-21T02:36:35;20.60;99.90
42347;DHT22;75728;51.856;6.314;2024-02-21T02:39:01;20.60;99.90
42347;DHT22;75728;51.856;6.314;2024-02-21T02:41:26;20.60;99.90
42347;DHT22;75728;51.856;6.314;2024-02-21T02:43:52;20.60;99.90
42347;DHT22;75728;51.856;6.314;2024-02-21T02:46:18;20.60;99.90
42347;DHT22;75728;51.856;6.314;2024-02-21T02:48:43;20.60;99.90
42347;DHT22;75728;51.856;6.314;2024-02-21T02:51:10;20.60;99.90
42347;DHT22;75728;51.856;6.314;2024-02-21T02:53:36;20.60;99.90
42347;DHT22;75728;51.856;6.314;2024-02-21T02:56:01;20.60;99.90
42347;DHT22;75728;51.856;6.314;2024-02-21T02:58:27;20.60;99.90
42347;DHT22;75728;51.856;6.314;2024-02-21T03:00:53;20.60;99.90
42347;DHT22;75728;51.856;6.314;2024-02-21T03:03:19;20.50;99.90
42347;DHT22;75728;51.856;6.314;2024-02-21T03:05:45;20.50;99.90
42347;DHT22;75728;51.856;6.314;2024-02-21T03:08:11;20.50;99.90
42347;DHT22;75728;51.856;6.314;2024-02-21T03:10:37;20.50;99.90
42347;DHT22;75728;51.856;6.314;2024-02-21T03:13:02;20.50;99.90
42347;DHT22;75728;51.856;6.314;2024-02-21T03:15:29;20.60;99.90
42347;DHT22;75728;51.856;6.314;2024-02-21T03:17:54;20.60;99.90
42347;DHT22;75728;51.856;6.314;2024-02-21T03:20:20;20.50;99.90
42347;DHT22;75728;51.856;6.314;2024-02-21T03:22:46;20.50;99.90
42347;DHT22;75728;51.856;6.314;2024-02-21T03:25:11;20.60;99.90
42347;DHT22;75728;51.856;6.314;2024-02-21T03:27:38;20.60;99.90
42347;DHT22;75728;51.856;6.314;2024-02-21T03:30:04;20.50;99.90
42347;DHT22;75728;51.856;6.314;2024-02-21T03:32:30;20.50;99.90
42347;DHT22;75728;51.856;6.314;2024-02-21T03:34:56;20.50;99.90
42347;DHT22;75728;51.856;6.314;2024-02-21T03:37:22;20.50;99.90
42347;DHT22;75728;51.856;6.314;2024-02-21T03:39:47;20.50;99.90
42347;DHT22;75728;51.856;6.314;2024-02-21T03:42:13;20.50;99.90
42347;DHT22;75728;51.856;6.314;2024-02-21T03:44:39;20.50;99.90
42347;DHT22;75728;51.856;6.314;2024-02-21T03:47:04;20.50;99.90
42347;DHT22;75728;51.856;6.314;2024-02-21T03:49:30;20.50;99.90
42347;DHT22;75728;51.856;6.314;2024-02-21T03:51:56;20.50;99.90
42347;DHT22;75728;51.856;6.314;2024-02-21T03:54:21;20.50;99.90
42347;DHT22;75728;51.856;6.314;2024-02-21T03:56:47;20.50;99.90
42347;DHT22;75728;51.856;6.314;2024-02-21T03:59:14;20.50;99.90
42347;DHT22;75728;51.856;6.314;2024-02-21T04:01:40;20.50;99.90
42347;DHT22;75728;51.856;6.314;2024-02-21T04:04:05;20.50;99.90
42347;DHT22;75728;51.856;6.314;2024-02-21T04:06:31;20.50;99.90
42347;DHT22;75728;51.856;6.314;2024-02-21T04:08:57;20.50;99.90
42347;DHT22;75728;51.856;6.314;2024-02-21T04:11:22;20.50;99.90
42347;DHT22;75728;51.856;6.314;2024-02-21T04:13:48;20.50;99.90
42347;DHT22;75728;51.856;6.314;2024-02-21T04:16:15;20.50;99.90
42347;DHT22;75728;51.856;6.314;2024-02-21T04:18:41;20.50;99.90
42347;DHT22;75728;51.856;6.314;2024-02-21T04:21:08;20.50;99.90
42347;DHT22;75728;51.856;6.314;2024-02-21T04:23:33;20.50;99.90
42347;DHT22;75728;51.856;6.314;2024-02-21T04:25:59;20.50;99.90
42347;DHT22;75728;51.856;6.314;2024-02-21T04:28:24;20.50;99.90
42347;DHT22;75728;51.856;6.314;2024-02-21T04:30:50;20.50;99.90
42347;DHT22;75728;51.856;6.314;2024-02-21T04:33:16;20.50;99.90
42347;DHT22;75728;51.856;6.314;2024-02-21T04:35:41;20.40;99.90
42347;DHT22;75728;51.856;6.314;2024-02-21T04:38:07;20.50;99.90
42347;DHT22;75728;51.856;6.314;2024-02-21T04:40:33;20.40;99.90
42347;DHT22;75728;51.856;6.314;2024-02-21T04:42:58;20.50;99.90
42347;DHT22;75728;51.856;6.314;2024-02-21T04:45:24;20.40;99.90
42347;DHT22;75728;51.856;6.314;2024-02-21T04:47:49;20.50;99.90
42347;DHT22;75728;51.856;6.314;2024-02-21T04:50:15;20.40;99.90
42347;DHT22;75728;51.856;6.314;2024-02-21T04:52:41;20.40;99.90
42347;DHT22;75728;51.856;6.314;2024-02-21T04:55:06;20.40;99.90
42347;DHT22;75728;51.856;6.314;2024-02-21T04:57:32;20.40;99.90
42347;DHT22;75728;51.856;6.314;2024-02-21T04:59:58;20.40;99.90
42347;DHT22;75728;51.856;6.314;2024-02-21T05:02:23;20.40;99.90
42347;DHT22;75728;51.856;6.314;2024-02-21T05:04:50;20.40;99.90
42347;DHT22;75728;51.856;6.314;2024-02-21T05:07:16;20.40;99.90
42347;DHT22;75728;51.856;6.314;2024-02-21T05:09:45;20.40;99.90
42347;DHT22;75728;51.856;6.314;2024-02-21T05:12:10;20.40;99.90
42347;DHT22;75728;51.856;6.314;2024-02-21T05:14:36;20.40;99.90
42347;DHT22;75728;51.856;6.314;2024-02-21T05:17:03;20.40;99.90
42347;DHT22;75728;51.856;6.314;2024-02-21T05:19:29;20.40;99.90
42347;DHT22;75728;51.856;6.314;2024-02-21T05:21:54;20.40;99.90
42347;DHT22;75728;51.856;6.314;2024-02-21T05:24:20;20.40;99.90
42347;DHT22;75728;51.856;6.314;2024-02-21T05:26:45;20.40;99.90
42347;DHT22;75728;51.856;6.314;2024-02-21T05:29:11;20.40;99.90
42347;DHT22;75728;51.856;6.314;2024-02-21T05:31:55;20.40;99.90
42347;DHT22;75728;51.856;6.314;2024-02-21T05:34:24;20.40;99.90
42347;DHT22;75728;51.856;6.314;2024-02-21T05:36:51;20.40;99.90
42347;DHT22;75728;51.856;6.314;2024-02-21T05:39:17;20.40;99.90
42347;DHT22;75728;51.856;6.314;2024-02-21T05:41:43;20.40;99.90
42347;DHT22;75728;51.856;6.314;2024-02-21T05:44:08;20.40;99.90
42347;DHT22;75728;51.856;6.314;2024-02-21T05:46:34;20.30;99.90
42347;DHT22;75728;51.856;6.314;2024-02-21T05:49:00;20.30;99.90
42347;DHT22;75728;51.856;6.314;2024-02-21T05:51:26;20.40;99.90
42347;DHT22;75728;51.856;6.314;2024-02-21T05:53:52;20.30;99.90
42347;DHT22;75728;51.856;6.314;2024-02-21T05:56:17;20.30;99.90
42347;DHT22;75728;51.856;6.314;2024-02-21T05:58:43;20.30;99.90
42347;DHT22;75728;51.856;6.314;2024-02-21T06:01:10;20.40;99.90
42347;DHT22;75728;51.856;6.314;2024-02-21T06:03:35;20.30;99.90
42347;DHT22;75728;51.856;6.314;2024-02-21T06:06:04;20.30;99.90
42347;DHT22;75728;51.856;6.314;2024-02-21T06:08:30;20.30;99.90
42347;DHT22;75728;51.856;6.314;2024-02-21T06:10:56;20.30;99.90
42347;DHT22;75728;51.856;6.314;2024-02-21T06:13:23;20.30;99.90
42347;DHT22;75728;51.856;6.314;2024-02-21T06:15:49;20.30;99.90
42347;DHT22;75728;51.856;6.314;2024-02-21T06:18:18;20.30;99.90
42347;DHT22;75728;51.856;6.314;2024-02-21T06:20:44;20.30;99.90
42347;DHT22;75728;51.856;6.314;2024-02-21T06:23:17;20.30;99.90
42347;DHT22;75728;51.856;6.314;2024-02-21T06:25:43;20.30;99.90
42347;DHT22;75728;51.856;6.314;2024-02-21T06:28:09;20.30;99.90
42347;DHT22;75728;51.856;6.314;2024-02-21T06:30:35;20.30;99.90
42347;DHT22;75728;51.856;6.314;2024-02-21T06:33:01;20.30;99.90
42347;DHT22;75728;51.856;6.314;2024-02-21T06:35:28;20.30;99.90
42347;DHT22;75728;51.856;6.314;2024-02-21T06:37:54;20.30;99.90
42347;DHT22;75728;51.856;6.314;2024-02-21T06:40:22;20.30;99.90
42347;DHT22;75728;51.856;6.314;2024-02-21T06:42:48;20.30;99.90
42347;DHT22;75728;51.856;6.314;2024-02-21T06:45:13;20.30;99.90
42347;DHT22;75728;51.856;6.314;2024-02-21T06:47:39;20.30;99.90
42347;DHT22;75728;51.856;6.314;2024-02-21T06:50:05;20.30;99.90
42347;DHT22;75728;51.856;6.314;2024-02-21T06:52:31;20.30;99.90
42347;DHT22;75728;51.856;6.314;2024-02-21T06:54:57;20.30;99.90
42347;DHT22;75728;51.856;6.314;2024-02-21T06:57:22;20.30;99.90
42347;DHT22;75728;51.856;6.314;2024-02-21T06:59:48;20.30;99.90
42347;DHT22;75728;51.856;6.314;2024-02-21T07:02:14;20.20;99.90
42347;DHT22;75728;51.856;6.314;2024-02-21T07:04:39;20.30;99.90
42347;DHT22;75728;51.856;6.314;2024-02-21T07:07:05;20.30;99.90
42347;DHT22;75728;51.856;6.314;2024-02-21T07:09:31;20.30;99.90
42347;DHT22;75728;51.856;6.314;2024-02-21T07:11:58;20.20;99.90
42347;DHT22;75728;51.856;6.314;2024-02-21T07:14:24;20.20;99.90
42347;DHT22;75728;51.856;6.314;2024-02-21T07:16:50;20.20;99.90
42347;DHT22;75728;51.856;6.314;2024-02-21T07:19:16;20.20;99.90
42347;DHT22;75728;51.856;6.314;2024-02-21T07:21:42;20.20;99.90
42347;DHT22;75728;51.856;6.314;2024-02-21T07:24:08;20.20;99.90
42347;DHT22;75728;51.856;6.314;2024-02-21T07:26:34;20.20;99.90
42347;DHT22;75728;51.856;6.314;2024-02-21T07:28:59;20.20;99.90
42347;DHT22;75728;51.856;6.314;2024-02-21T07:31:25;20.20;99.90
42347;DHT22;75728;51.856;6.314;2024-02-21T07:33:51;20.20;99.90
42347;DHT22;75728;51.856;6.314;2024-02-21T07:36:33;20.20;99.90
42347;DHT22;75728;51.856;6.314;2024-02-21T07:38:58;20.20;99.90
42347;DHT22;75728;51.856;6.314;2024-02-21T07:41:25;20.20;99.90
42347;DHT22;75728;51.856;6.314;2024-02-21T07:43:51;20.10;99.90
42347;DHT22;75728;51.856;6.314;2024-02-21T07:46:18;20.00;99.90
42347;DHT22;75728;51.856;6.314;2024-02-21T07:48:45;19.90;99.90
42347;DHT22;75728;51.856;6.314;2024-02-21T07:51:11;19.90;99.90
42347;DHT22;75728;51.856;6.314;2024-02-21T07:53:36;19.80;99.90
42347;DHT22;75728;51.856;6.314;2024-02-21T07:56:02;19.80;99.90
42347;DHT22;75728;51.856;6.314;2024-02-21T07:58:27;19.70;99.90
42347;DHT22;75728;51.856;6.314;2024-02-21T08:00:53;19.70;99.90
42347;DHT22;75728;51.856;6.314;2024-02-21T08:03:19;19.70;99.90
42347;DHT22;75728;51.856;6.314;2024-02-21T08:05:44;19.60;99.90
42347;DHT22;75728;51.856;6.314;2024-02-21T08:08:10;19.60;99.90
42347;DHT22;75728;51.856;6.314;2024-02-21T08:10:35;19.60;99.90
42347;DHT22;75728;51.856;6.314;2024-02-21T08:13:01;19.60;99.90
42347;DHT22;75728;51.856;6.314;2024-02-21T08:15:27;19.60;99.90
42347;DHT22;75728;51.856;6.314;2024-02-21T08:17:55;19.60;99.90
42347;DHT22;75728;51.856;6.314;2024-02-21T08:20:25;19.60;99.90
42347;DHT22;75728;51.856;6.314;2024-02-21T08:22:50;19.60;99.90
42347;DHT22;75728;51.856;6.314;2024-02-21T08:25:16;19.50;99.90
42347;DHT22;75728;51.856;6.314;2024-02-21T08:27:41;19.60;99.90
42347;DHT22;75728;51.856;6.314;2024-02-21T08:30:07;19.60;99.90
42347;DHT22;75728;51.856;6.314;2024-02-21T08:32:33;19.60;99.90
42347;DHT22;75728;51.856;6.314;2024-02-21T08:35:01;19.60;99.90
42347;DHT22;75728;51.856;6.314;2024-02-21T08:37:29;19.60;99.90
42347;DHT22;75728;51.856;6.314;2024-02-21T08:39:55;19.60;99.90
42347;DHT22;75728;51.856;6.314;2024-02-21T08:42:21;19.60;99.90
42347;DHT22;75728;51.856;6.314;2024-02-21T08:44:46;19.60;99.90
42347;DHT22;75728;51.856;6.314;2024-02-21T08:47:12;19.50;99.90
42347;DHT22;75728;51.856;6.314;2024-02-21T08:49:38;19.60;99.90
42347;DHT22;75728;51.856;6.314;2024-02-21T08:52:04;19.60;99.90
42347;DHT22;75728;51.856;6.314;2024-02-21T08:54:31;19.60;99.90
42347;DHT22;75728;51.856;6.314;2024-02-21T08:56:56;19.60;99.90
42347;DHT22;75728;51.856;6.314;2024-02-21T08:59:22;19.50;99.90
42347;DHT22;75728;51.856;6.314;2024-02-21T09:01:48;19.50;99.90
42347;DHT22;75728;51.856;6.314;2024-02-21T09:04:13;19.50;99.90
42347;DHT22;75728;51.856;6.314;2024-02-21T09:06:39;19.60;99.90
42347;DHT22;75728;51.856;6.314;2024-02-21T09:09:08;19.60;99.90
42347;DHT22;75728;51.856;6.314;2024-02-21T09:11:34;19.60;99.90
42347;DHT22;75728;51.856;6.314;2024-02-21T09:14:00;19.60;99.90
42347;DHT22;75728;51.856;6.314;2024-02-21T09:16:25;19.50;99.90
42347;DHT22;75728;51.856;6.314;2024-02-21T09:18:51;19.50;99.90
42347;DHT22;75728;51.856;6.314;2024-02-21T09:21:18;19.50;99.90
42347;DHT22;75728;51.856;6.314;2024-02-21T09:23:44;19.50;99.90
42347;DHT22;75728;51.856;6.314;2024-02-21T09:26:10;19.50;99.90
42347;DHT22;75728;51.856;6.314;2024-02-21T09:28:39;19.50;99.90
42347;DHT22;75728;51.856;6.314;2024-02-21T09:31:05;19.50;99.90
42347;DHT22;75728;51.856;6.314;2024-02-21T09:33:30;19.50;99.90
42347;DHT22;75728;51.856;6.314;2024-02-21T09:35:56;19.50;99.90
42347;DHT22;75728;51.856;6.314;2024-02-21T09:38:22;19.50;99.90
42347;DHT22;75728;51.856;6.314;2024-02-21T09:40:48;19.50;99.90
42347;DHT22;75728;51.856;6.314;2024-02-21T09:43:18;19.50;99.90
42347;DHT22;75728;51.856;6.314;2024-02-21T09:45:46;19.50;99.90
42347;DHT22;75728;51.856;6.314;2024-02-21T09:48:42;19.50;99.90
42347;DHT22;75728;51.856;6.314;2024-02-21T09:51:14;19.60;99.90
42347;DHT22;75728;51.856;6.314;2024-02-21T09:53:40;19.60;99.90
42347;DHT22;75728;51.856;6.314;2024-02-21T09:56:10;19.60;99.90
42347;DHT22;75728;51.856;6.314;2024-02-21T09:58:36;19.60;99.90
42347;DHT22;75728;51.856;6.314;2024-02-21T10:01:03;19.60;99.90
42347;DHT22;75728;51.856;6.314;2024-02-21T10:03:32;19.60;99.90
42347;DHT22;75728;51.856;6.314;2024-02-21T10:05:59;19.60;99.90
42347;DHT22;75728;51.856;6.314;2024-02-21T10:08:26;19.60;99.90
42347;DHT22;75728;51.856;6.314;2024-02-21T10:10:52;19.70;99.90
42347;DHT22;75728;51.856;6.314;2024-02-21T10:13:31;19.60;99.90
42347;DHT22;75728;51.856;6.314;2024-02-21T10:16:07;19.70;99.90
42347;DHT22;75728;51.856;6.314;2024-02-21T10:18:36;19.70;99.90
42347;DHT22;75728;51.856;6.314;2024-02-21T10:21:06;19.70;99.90
42347;DHT22;75728;51.856;6.314;2024-02-21T10:23:49;19.70;99.90
42347;DHT22;75728;51.856;6.314;2024-02-21T10:26:16;19.70;99.90
42347;DHT22;75728;51.856;6.314;2024-02-21T10:28:42;19.70;99.90
42347;DHT22;75728;51.856;6.314;2024-02-21T10:31:11;19.70;99.90
42347;DHT22;75728;51.856;6.314;2024-02-21T10:33:37;19.70;99.90
42347;DHT22;75728;51.856;6.314;2024-02-21T10:36:10;19.70;99.90
42347;DHT22;75728;51.856;6.314;2024-02-21T10:38:39;19.70;99.90
42347;DHT22;75728;51.856;6.314;2024-02-21T10:41:06;19.70;99.90
42347;DHT22;75728;51.856;6.314;2024-02-21T10:43:39;19.70;99.90
42347;DHT22;75728;51.856;6.314;2024-02-21T10:46:08;19.70;99.90
42347;DHT22;75728;51.856;6.314;2024-02-21T10:48:45;19.70;99.90
42347;DHT22;75728;51.856;6.314;2024-02-21T10:51:17;19.70;99.90
42347;DHT22;75728;51.856;6.314;2024-02-21T10:56:30;19.70;99.90
42347;DHT22;75728;51.856;6.314;2024-02-21T10:59:01;19.70;99.90
42347;DHT22;75728;51.856;6.314;2024-02-21T11:01:28;19.70;99.90
42347;DHT22;75728;51.856;6.314;2024-02-21T11:03:58;19.70;99.90
42347;DHT22;75728;51.856;6.314;2024-02-21T11:06:26;19.70;99.90
42347;DHT22;75728;51.856;6.314;2024-02-21T11:11:43;19.70;99.90
42347;DHT22;75728;51.856;6.314;2024-02-21T11:14:19;19.90;99.90
42347;DHT22;75728;51.856;6.314;2024-02-21T11:16:45;20.10;99.90
42347;DHT22;75728;51.856;6.314;2024-02-21T11:21:50;20.30;99.90
42347;DHT22;75728;51.856;6.314;2024-02-21T11:24:29;20.30;99.90
42347;DHT22;75728;51.856;6.314;2024-02-21T11:26:56;20.40;99.90
42347;DHT22;75728;51.856;6.314;2024-02-21T11:29:25;20.40;99.90
42347;DHT22;75728;51.856;6.314;2024-02-21T11:31:52;20.50;99.90
42347;DHT22;75728;51.856;6.314;2024-02-21T11:34:18;20.50;99.90
42347;DHT22;75728;51.856;6.314;2024-02-21T11:36:48;20.50;99.90
42347;DHT22;75728;51.856;6.314;2024-02-21T11:39:25;20.40;99.90
42347;DHT22;75728;51.856;6.314;2024-02-21T11:42:07;20.40;99.90
42347;DHT22;75728;51.856;6.314;2024-02-21T11:44:35;20.50;99.90
42347;DHT22;75728;51.856;6.314;2024-02-21T11:47:00;20.50;99.90
42347;DHT22;75728;51.856;6.314;2024-02-21T11:49:28;20.50;99.90
42347;DHT22;75728;51.856;6.314;2024-02-21T11:52:01;20.50;99.90
42347;DHT22;75728;51.856;6.314;2024-02-21T11:54:29;20.50;99.90
42347;DHT22;75728;51.856;6.314;2024-02-21T11:56:55;20.50;99.90
42347;DHT22;75728;51.856;6.314;2024-02-21T11:59:20;20.40;99.90
42347;DHT22;75728;51.856;6.314;2024-02-21T12:01:47;20.40;99.90
42347;DHT22;75728;51.856;6.314;2024-02-21T12:04:13;20.40;99.90
42347;DHT22;75728;51.856;6.314;2024-02-21T12:06:39;20.40;99.90
42347;DHT22;75728;51.856;6.314;2024-02-21T12:09:08;20.40;99.90
42347;DHT22;75728;51.856;6.314;2024-02-21T12:11:36;20.40;99.90
42347;DHT22;75728;51.856;6.314;2024-02-21T12:14:02;20.40;99.90
42347;DHT22;75728;51.856;6.314;2024-02-21T12:16:33;20.40;99.90
42347;DHT22;75728;51.856;6.314;2024-02-21T12:19:00;20.50;99.90
42347;DHT22;75728;51.856;6.314;2024-02-21T12:21:30;20.50;99.90
42347;DHT22;75728;51.856;6.314;2024-02-21T12:23:58;20.50;99.90
42347;DHT22;75728;51.856;6.314;2024-02-21T12:26:24;20.50;99.90
42347;DHT22;75728;51.856;6.314;2024-02-21T12:28:50;20.50;99.90
42347;DHT22;75728;51.856;6.314;2024-02-21T12:31:16;20.50;99.90
42347;DHT22;75728;51.856;6.314;2024-02-21T12:33:45;20.50;99.90
42347;DHT22;75728;51.856;6.314;2024-02-21T12:36:11;20.60;99.90
42347;DHT22;75728;51.856;6.314;2024-02-21T12:38:36;20.60;99.90
42347;DHT22;75728;51.856;6.314;2024-02-21T12:41:02;20.50;99.90
42347;DHT22;75728;51.856;6.314;2024-02-21T12:43:28;20.50;99.90
42347;DHT22;75728;51.856;6.314;2024-02-21T12:45:54;20.50;99.90
42347;DHT22;75728;51.856;6.314;2024-02-21T12:48:20;20.50;99.90
42347;DHT22;75728;51.856;6.314;2024-02-21T12:50:49;20.50;99.90
42347;DHT22;75728;51.856;6.314;2024-02-21T12:53:19;20.50;99.90
42347;DHT22;75728;51.856;6.314;2024-02-21T12:55:49;20.50;99.90
42347;DHT22;75728;51.856;6.314;2024-02-21T12:58:15;20.60;99.90
42347;DHT22;75728;51.856;6.314;2024-02-21T13:00:41;20.50;99.90
42347;DHT22;75728;51.856;6.314;2024-02-21T13:03:07;20.50;99.90
42347;DHT22;75728;51.856;6.314;2024-02-21T13:05:35;20.60;99.90
42347;DHT22;75728;51.856;6.314;2024-02-21T13:08:01;20.60;99.90
42347;DHT22;75728;51.856;6.314;2024-02-21T13:10:26;20.60;99.90
42347;DHT22;75728;51.856;6.314;2024-02-21T13:12:52;20.60;99.90
42347;DHT22;75728;51.856;6.314;2024-02-21T13:15:19;20.60;99.90
42347;DHT22;75728;51.856;6.314;2024-02-21T13:17:45;20.60;99.90
42347;DHT22;75728;51.856;6.314;2024-02-21T13:20:11;20.60;99.90
42347;DHT22;75728;51.856;6.314;2024-02-21T13:22:37;20.60;99.90
42347;DHT22;75728;51.856;6.314;2024-02-21T13:25:04;20.50;99.90
42347;DHT22;75728;51.856;6.314;2024-02-21T13:27:30;20.60;99.90
42347;DHT22;75728;51.856;6.314;2024-02-21T13:29:56;20.60;99.90
42347;DHT22;75728;51.856;6.314;2024-02-21T13:32:21;20.50;99.90
42347;DHT22;75728;51.856;6.314;2024-02-21T13:34:47;20.50;99.90
42347;DHT22;75728;51.856;6.314;2024-02-21T13:37:12;20.60;99.90
42347;DHT22;75728;51.856;6.314;2024-02-21T13:39:39;20.60;99.90
42347;DHT22;75728;51.856;6.314;2024-02-21T13:42:05;20.60;99.90
42347;DHT22;75728;51.856;6.314;2024-02-21T13:44:31;20.60;99.90
42347;DHT22;75728;51.856;6.314;2024-02-21T13:46:57;20.60;99.90
42347;DHT22;75728;51.856;6.314;2024-02-21T13:49:23;20.50;99.90
42347;DHT22;75728;51.856;6.314;2024-02-21T13:51:49;20.50;99.90
42347;DHT22;75728;51.856;6.314;2024-02-21T13:54:14;20.50;99.90
42347;DHT22;75728;51.856;6.314;2024-02-21T13:56:42;20.50;99.90
42347;DHT22;75728;51.856;6.314;2024-02-21T13:59:08;20.60;99.90
42347;DHT22;75728;51.856;6.314;2024-02-21T14:01:34;20.50;99.90
42347;DHT22;75728;51.856;6.314;2024-02-21T14:04:01;20.50;99.90
42347;DHT22;75728;51.856;6.314;2024-02-21T14:06:27;20.50;99.90
42347;DHT22;75728;51.856;6.314;2024-02-21T14:08:52;20.50;99.90
42347;DHT22;75728;51.856;6.314;2024-02-21T14:11:18;20.50;99.90
42347;DHT22;75728;51.856;6.314;2024-02-21T14:13:44;20.40;99.90
42347;DHT22;75728;51.856;6.314;2024-02-21T14:16:10;20.40;99.90
42347;DHT22;75728;51.856;6.314;2024-02-21T14:18:45;20.40;99.90
42347;DHT22;75728;51.856;6.314;2024-02-21T14:21:11;20.40;99.90
42347;DHT22;75728;51.856;6.314;2024-02-21T14:23:37;20.40;99.90
42347;DHT22;75728;51.856;6.314;2024-02-21T14:26:04;20.40;99.90
42347;DHT22;75728;51.856;6.314;2024-02-21T14:28:30;20.40;99.90
42347;DHT22;75728;51.856;6.314;2024-02-21T14:30:55;20.40;99.90
42347;DHT22;75728;51.856;6.314;2024-02-21T14:33:23;20.40;99.90
42347;DHT22;75728;51.856;6.314;2024-02-21T14:35:50;20.30;99.90
42347;DHT22;75728;51.856;6.314;2024-02-21T14:38:17;20.40;99.90
42347;DHT22;75728;51.856;6.314;2024-02-21T14:40:43;20.30;99.90
42347;DHT22;75728;51.856;6.314;2024-02-21T14:43:08;20.30;99.90
42347;DHT22;75728;51.856;6.314;2024-02-21T14:45:34;20.30;99.90
42347;DHT22;75728;51.856;6.314;2024-02-21T14:48:00;20.30;99.90
42347;DHT22;75728;51.856;6.314;2024-02-21T14:50:26;20.30;99.90
42347;DHT22;75728;51.856;6.314;2024-02-21T14:52:52;20.30;99.90
42347;DHT22;75728;51.856;6.314;2024-02-21T14:55:18;20.30;99.90
42347;DHT22;75728;51.856;6.314;2024-02-21T14:57:43;20.30;99.90
42347;DHT22;75728;51.856;6.314;2024-02-21T15:00:10;20.30;99.80
42347;DHT22;75728;51.856;6.314;2024-02-21T15:02:37;20.30;99.90
42347;DHT22;75728;51.856;6.314;2024-02-21T15:05:02;20.20;99.90
42347;DHT22;75728;51.856;6.314;2024-02-21T15:07:32;20.10;99.90
42347;DHT22;75728;51.856;6.314;2024-02-21T15:09:57;20.00;99.90
42347;DHT22;75728;51.856;6.314;2024-02-21T15:12:23;20.00;99.90
42347;DHT22;75728;51.856;6.314;2024-02-21T15:14:52;20.00;99.90
42347;DHT22;75728;51.856;6.314;2024-02-21T15:17:18;20.00;99.90
42347;DHT22;75728;51.856;6.314;2024-02-21T15:19:44;20.00;99.90
42347;DHT22;75728;51.856;6.314;2024-02-21T15:22:12;20.00;99.90
42347;DHT22;75728;51.856;6.314;2024-02-21T15:24:39;20.00;99.90
42347;DHT22;75728;51.856;6.314;2024-02-21T15:27:05;20.00;99.90
42347;DHT22;75728;51.856;6.314;2024-02-21T15:29:31;19.90;99.90
42347;DHT22;75728;51.856;6.314;2024-02-21T15:31:56;20.00;99.90
42347;DHT22;75728;51.856;6.314;2024-02-21T15:34:22;20.00;99.90